sensor_id;sensor_type;location;lat;lon;timestamp;temperature;humidity
8684;DHT22;4379;59.744;18.206;2023-04-25T00:00:18;2.20;99.90
8684;DHT22;4379;59.744;18.206;2023-04-25T00:02:46;2.20;99.90
8684;DHT22;4379;59.744;18.206;2023-04-25T00:05:14;2.30;99.90
8684;DHT22;4379;59.744;18.206;2023-04-25T00:07:43;2.30;99.90
8684;DHT22;4379;59.744;18.206;2023-04-25T00:10:11;2.30;99.90
8684;DHT22;4379;59.744;18.206;2023-04-25T00:12:40;2.20;99.90
8684;DHT22;4379;59.744;18.206;2023-04-25T00:15:08;2.30;99.90
8684;DHT22;4379;59.744;18.206;2023-04-25T00:17:36;2.20;99.90
8684;DHT22;4379;59.744;18.206;2023-04-25T00:20:06;2.10;99.90
8684;DHT22;4379;59.744;18.206;2023-04-25T00:22:37;2.00;99.90
8684;DHT22;4379;59.744;18.206;2023-04-25T00:25:05;2.10;99.90
8684;DHT22;4379;59.744;18.206;2023-04-25T00:27:33;2.20;99.90
8684;DHT22;4379;59.744;18.206;2023-04-25T00:30:00;2.10;99.90
8684;DHT22;4379;59.744;18.206;2023-04-25T00:32:28;2.10;99.90
8684;DHT22;4379;59.744;18.206;2023-04-25T00:34:55;2.10;99.90
8684;DHT22;4379;59.744;18.206;2023-04-25T00:37:24;2.10;99.90
8684;DHT22;4379;59.744;18.206;2023-04-25T00:39:52;2.00;99.90
8684;DHT22;4379;59.744;18.206;2023-04-25T00:42:20;2.10;99.90
8684;DHT22;4379;59.744;18.206;2023-04-25T00:44:48;2.00;99.90
8684;DHT22;4379;59.744;18.206;2023-04-25T00:47:17;2.00;99.90
8684;DHT22;4379;59.744;18.206;2023-04-25T00:49:44;2.10;99.90
8684;DHT22;4379;59.744;18.206;2023-04-25T00:52:12;2.20;99.90
8684;DHT22;4379;59.744;18.206;2023-04-25T00:54:40;2.10;99.90
8684;DHT22;4379;59.744;18.206;2023-04-25T00:57:07;2.10;99.90
8684;DHT22;4379;59.744;18.206;2023-04-25T00:59:36;2.10;99.90
8684;DHT22;4379;59.744;18.206;2023-04-25T01:02:05;2.10;99.90
8684;DHT22;4379;59.744;18.206;2023-04-25T01:04:32;2.10;99.90
8684;DHT22;4379;59.744;18.206;2023-04-25T01:07:00;2.10;99.90
8684;DHT22;4379;59.744;18.206;2023-04-25T01:09:30;2.20;99.90
8684;DHT22;4379;59.744;18.206;2023-04-25T01:11:59;2.20;99.90
8684;DHT22;4379;59.744;18.206;2023-04-25T01:14:27;2.20;99.90
8684;DHT22;4379;59.744;18.206;2023-04-25T01:16:54;2.10;99.90
8684;DHT22;4379;59.744;18.206;2023-04-25T01:19:22;2.10;99.90
8684;DHT22;4379;59.744;18.206;2023-04-25T01:21:51;2.10;99.90
8684;DHT22;4379;59.744;18.206;2023-04-25T01:24:18;2.10;99.90
8684;DHT22;4379;59.744;18.206;2023-04-25T01:26:46;2.00;99.90
8684;DHT22;4379;59.744;18.206;2023-04-25T01:29:18;2.00;99.90
8684;DHT22;4379;59.744;18.206;2023-04-25T01:31:46;2.10;99.90
8684;DHT22;4379;59.744;18.206;2023-04-25T01:34:14;2.00;99.90
8684;DHT22;4379;59.744;18.206;2023-04-25T01:36:41;1.90;99.90
8684;DHT22;4379;59.744;18.206;2023-04-25T01:39:09;1.90;99.90
8684;DHT22;4379;59.744;18.206;2023-04-25T01:41:36;1.90;99.90
8684;DHT22;4379;59.744;18.206;2023-04-25T01:44:04;1.80;99.90
8684;DHT22;4379;59.744;18.206;2023-04-25T01:46:33;1.80;99.90
8684;DHT22;4379;59.744;18.206;2023-04-25T01:49:02;1.80;99.90
8684;DHT22;4379;59.744;18.206;2023-04-25T01:51:30;1.70;99.90
8684;DHT22;4379;59.744;18.206;2023-04-25T01:53:58;1.60;99.90
8684;DHT22;4379;59.744;18.206;2023-04-25T01:56:30;1.70;99.90
8684;DHT22;4379;59.744;18.206;2023-04-25T01:58:58;1.70;99.90
8684;DHT22;4379;59.744;18.206;2023-04-25T02:01:26;1.70;99.90
8684;DHT22;4379;59.744;18.206;2023-04-25T02:03:54;1.70;99.90
8684;DHT22;4379;59.744;18.206;2023-04-25T02:06:22;1.50;99.90
8684;DHT22;4379;59.744;18.206;2023-04-25T02:08:50;1.60;99.90
8684;DHT22;4379;59.744;18.206;2023-04-25T02:11:17;1.50;99.90
8684;DHT22;4379;59.744;18.206;2023-04-25T02:13:45;1.60;99.90
8684;DHT22;4379;59.744;18.206;2023-04-25T02:16:12;1.60;99.90
8684;DHT22;4379;59.744;18.206;2023-04-25T02:18:40;1.60;99.90
8684;DHT22;4379;59.744;18.206;2023-04-25T02:21:08;1.70;99.90
8684;DHT22;4379;59.744;18.206;2023-04-25T02:23:35;1.70;99.90
8684;DHT22;4379;59.744;18.206;2023-04-25T02:26:03;1.60;99.90
8684;DHT22;4379;59.744;18.206;2023-04-25T02:28:31;1.60;99.90
8684;DHT22;4379;59.744;18.206;2023-04-25T02:30:58;1.70;99.90
8684;DHT22;4379;59.744;18.206;2023-04-25T02:33:26;1.70;99.90
8684;DHT22;4379;59.744;18.206;2023-04-25T02:35:53;1.80;99.90
8684;DHT22;4379;59.744;18.206;2023-04-25T02:38:20;1.70;99.90
8684;DHT22;4379;59.744;18.206;2023-04-25T02:40:48;1.70;99.90
8684;DHT22;4379;59.744;18.206;2023-04-25T02:43:15;1.80;99.90
8684;DHT22;4379;59.744;18.206;2023-04-25T02:45:45;1.80;99.90
8684;DHT22;4379;59.744;18.206;2023-04-25T02:48:12;1.70;99.90
8684;DHT22;4379;59.744;18.206;2023-04-25T02:50:40;1.70;99.90
8684;DHT22;4379;59.744;18.206;2023-04-25T02:53:07;1.80;99.90
8684;DHT22;4379;59.744;18.206;2023-04-25T02:55:35;1.70;99.90
8684;DHT22;4379;59.744;18.206;2023-04-25T02:58:02;1.70;99.90
8684;DHT22;4379;59.744;18.206;2023-04-25T03:00:30;1.80;99.90
8684;DHT22;4379;59.744;18.206;2023-04-25T03:02:57;1.80;99.90
8684;DHT22;4379;59.744;18.206;2023-04-25T03:05:25;1.70;99.90
8684;DHT22;4379;59.744;18.206;2023-04-25T03:07:52;1.70;99.90
8684;DHT22;4379;59.744;18.206;2023-04-25T03:10:19;1.90;99.90
8684;DHT22;4379;59.744;18.206;2023-04-25T03:12:47;1.90;99.90
8684;DHT22;4379;59.744;18.206;2023-04-25T03:15:14;1.80;99.90
8684;DHT22;4379;59.744;18.206;2023-04-25T03:17:43;1.80;99.90
8684;DHT22;4379;59.744;18.206;2023-04-25T03:20:11;1.90;99.90
8684;DHT22;4379;59.744;18.206;2023-04-25T03:22:38;1.70;99.90
8684;DHT22;4379;59.744;18.206;2023-04-25T03:25:06;1.70;99.90
8684;DHT22;4379;59.744;18.206;2023-04-25T03:27:34;1.70;99.90
8684;DHT22;4379;59.744;18.206;2023-04-25T03:30:02;1.70;99.90
8684;DHT22;4379;59.744;18.206;2023-04-25T03:32:29;1.70;99.90
8684;DHT22;4379;59.744;18.206;2023-04-25T03:34:57;1.70;99.90
8684;DHT22;4379;59.744;18.206;2023-04-25T03:37:24;1.70;99.90
8684;DHT22;4379;59.744;18.206;2023-04-25T03:39:52;1.70;99.90
8684;DHT22;4379;59.744;18.206;2023-04-25T03:42:19;1.80;99.90
8684;DHT22;4379;59.744;18.206;2023-04-25T03:44:50;1.80;99.90
8684;DHT22;4379;59.744;18.206;2023-04-25T03:47:18;1.80;99.90
8684;DHT22;4379;59.744;18.206;2023-04-25T03:49:45;1.90;99.90
8684;DHT22;4379;59.744;18.206;2023-04-25T03:52:13;1.90;99.90
8684;DHT22;4379;59.744;18.206;2023-04-25T03:54:40;1.80;99.90
8684;DHT22;4379;59.744;18.206;2023-04-25T03:57:08;1.90;99.90
8684;DHT22;4379;59.744;18.206;2023-04-25T03:59:35;2.00;99.90
8684;DHT22;4379;59.744;18.206;2023-04-25T04:02:03;1.90;99.90
8684;DHT22;4379;59.744;18.206;2023-04-25T04:04:30;1.90;99.90
8684;DHT22;4379;59.744;18.206;2023-04-25T04:06:58;2.00;99.90
8684;DHT22;4379;59.744;18.206;2023-04-25T04:09:25;2.10;99.90
8684;DHT22;4379;59.744;18.206;2023-04-25T04:11:54;2.00;99.90
8684;DHT22;4379;59.744;18.206;2023-04-25T04:14:22;2.10;99.90
8684;DHT22;4379;59.744;18.206;2023-04-25T04:16:51;2.00;99.90
8684;DHT22;4379;59.744;18.206;2023-04-25T04:19:19;1.90;99.90
8684;DHT22;4379;59.744;18.206;2023-04-25T04:21:47;1.90;99.90
8684;DHT22;4379;59.744;18.206;2023-04-25T04:24:14;2.00;99.90
8684;DHT22;4379;59.744;18.206;2023-04-25T04:26:43;2.10;99.90
8684;DHT22;4379;59.744;18.206;2023-04-25T04:29:12;2.30;99.90
8684;DHT22;4379;59.744;18.206;2023-04-25T04:31:39;2.30;99.90
8684;DHT22;4379;59.744;18.206;2023-04-25T04:34:07;2.30;99.90
8684;DHT22;4379;59.744;18.206;2023-04-25T04:36:34;2.30;99.90
8684;DHT22;4379;59.744;18.206;2023-04-25T04:39:02;2.20;99.90
8684;DHT22;4379;59.744;18.206;2023-04-25T04:41:30;2.20;99.90
8684;DHT22;4379;59.744;18.206;2023-04-25T04:43:58;2.20;99.90
8684;DHT22;4379;59.744;18.206;2023-04-25T04:46:25;2.20;99.90
8684;DHT22;4379;59.744;18.206;2023-04-25T04:48:54;2.30;99.90
8684;DHT22;4379;59.744;18.206;2023-04-25T04:51:29;2.30;99.90
8684;DHT22;4379;59.744;18.206;2023-04-25T04:53:57;2.40;99.90
8684;DHT22;4379;59.744;18.206;2023-04-25T04:56:25;2.50;99.90
8684;DHT22;4379;59.744;18.206;2023-04-25T04:58:52;2.60;99.90
8684;DHT22;4379;59.744;18.206;2023-04-25T05:01:20;2.50;99.90
8684;DHT22;4379;59.744;18.206;2023-04-25T05:03:47;2.50;99.90
8684;DHT22;4379;59.744;18.206;2023-04-25T05:06:18;2.70;99.90
8684;DHT22;4379;59.744;18.206;2023-04-25T05:08:45;2.70;99.90
8684;DHT22;4379;59.744;18.206;2023-04-25T05:11:13;2.70;99.90
8684;DHT22;4379;59.744;18.206;2023-04-25T05:13:40;2.70;99.90
8684;DHT22;4379;59.744;18.206;2023-04-25T05:16:08;2.80;99.90
8684;DHT22;4379;59.744;18.206;2023-04-25T05:18:35;2.80;99.90
8684;DHT22;4379;59.744;18.206;2023-04-25T05:21:03;2.80;99.90
8684;DHT22;4379;59.744;18.206;2023-04-25T05:23:31;2.90;99.90
8684;DHT22;4379;59.744;18.206;2023-04-25T05:25:59;3.00;99.90
8684;DHT22;4379;59.744;18.206;2023-04-25T05:28:27;2.90;99.90
8684;DHT22;4379;59.744;18.206;2023-04-25T05:30:54;2.90;99.90
8684;DHT22;4379;59.744;18.206;2023-04-25T05:33:22;2.90;99.90
8684;DHT22;4379;59.744;18.206;2023-04-25T05:35:49;2.90;99.90
8684;DHT22;4379;59.744;18.206;2023-04-25T05:38:17;2.90;99.90
8684;DHT22;4379;59.744;18.206;2023-04-25T05:40:45;3.00;99.90
8684;DHT22;4379;59.744;18.206;2023-04-25T05:43:13;3.10;99.90
8684;DHT22;4379;59.744;18.206;2023-04-25T05:45:40;3.20;99.90
8684;DHT22;4379;59.744;18.206;2023-04-25T05:48:08;3.20;99.90
8684;DHT22;4379;59.744;18.206;2023-04-25T05:50:35;3.10;99.90
8684;DHT22;4379;59.744;18.206;2023-04-25T05:53:03;3.10;99.90
8684;DHT22;4379;59.744;18.206;2023-04-25T05:55:30;3.10;99.90
8684;DHT22;4379;59.744;18.206;2023-04-25T05:57:58;3.10;99.90
8684;DHT22;4379;59.744;18.206;2023-04-25T06:00:25;3.10;99.90
8684;DHT22;4379;59.744;18.206;2023-04-25T06:02:55;3.10;99.90
8684;DHT22;4379;59.744;18.206;2023-04-25T06:05:23;3.00;99.90
8684;DHT22;4379;59.744;18.206;2023-04-25T06:07:50;2.90;99.90
8684;DHT22;4379;59.744;18.206;2023-04-25T06:10:18;3.10;99.90
8684;DHT22;4379;59.744;18.206;2023-04-25T06:12:45;3.20;99.90
8684;DHT22;4379;59.744;18.206;2023-04-25T06:15:13;3.10;99.90
8684;DHT22;4379;59.744;18.206;2023-04-25T06:17:55;3.30;99.90
8684;DHT22;4379;59.744;18.206;2023-04-25T06:20:22;3.40;99.90
8684;DHT22;4379;59.744;18.206;2023-04-25T06:22:52;3.40;99.90
8684;DHT22;4379;59.744;18.206;2023-04-25T06:25:20;3.50;99.90
8684;DHT22;4379;59.744;18.206;2023-04-25T06:27:48;3.60;99.90
8684;DHT22;4379;59.744;18.206;2023-04-25T06:30:15;3.60;99.90
8684;DHT22;4379;59.744;18.206;2023-04-25T06:32:45;3.70;99.90
8684;DHT22;4379;59.744;18.206;2023-04-25T06:35:12;3.50;99.90
8684;DHT22;4379;59.744;18.206;2023-04-25T06:37:40;3.60;99.90
8684;DHT22;4379;59.744;18.206;2023-04-25T06:40:08;3.50;99.90
8684;DHT22;4379;59.744;18.206;2023-04-25T06:42:35;3.70;99.90
8684;DHT22;4379;59.744;18.206;2023-04-25T06:45:03;3.70;99.90
8684;DHT22;4379;59.744;18.206;2023-04-25T06:47:30;3.70;99.90
8684;DHT22;4379;59.744;18.206;2023-04-25T06:49:58;3.70;99.90
8684;DHT22;4379;59.744;18.206;2023-04-25T06:52:25;3.70;99.90
8684;DHT22;4379;59.744;18.206;2023-04-25T06:54:52;3.80;99.90
8684;DHT22;4379;59.744;18.206;2023-04-25T06:57:20;3.90;99.90
8684;DHT22;4379;59.744;18.206;2023-04-25T06:59:47;3.90;99.90
8684;DHT22;4379;59.744;18.206;2023-04-25T07:02:15;4.00;99.90
8684;DHT22;4379;59.744;18.206;2023-04-25T07:04:42;4.10;99.90
8684;DHT22;4379;59.744;18.206;2023-04-25T07:07:10;4.10;99.90
8684;DHT22;4379;59.744;18.206;2023-04-25T07:09:38;4.10;99.90
8684;DHT22;4379;59.744;18.206;2023-04-25T07:12:05;3.90;99.90
8684;DHT22;4379;59.744;18.206;2023-04-25T07:14:32;3.80;99.90
8684;DHT22;4379;59.744;18.206;2023-04-25T07:17:00;3.90;99.90
8684;DHT22;4379;59.744;18.206;2023-04-25T07:19:30;3.90;99.90
8684;DHT22;4379;59.744;18.206;2023-04-25T07:21:58;3.80;99.90
8684;DHT22;4379;59.744;18.206;2023-04-25T07:24:25;3.80;99.90
8684;DHT22;4379;59.744;18.206;2023-04-25T07:26:53;3.90;99.90
8684;DHT22;4379;59.744;18.206;2023-04-25T07:29:23;3.90;99.90
8684;DHT22;4379;59.744;18.206;2023-04-25T07:31:51;4.10;99.90
8684;DHT22;4379;59.744;18.206;2023-04-25T07:34:18;4.10;99.90
8684;DHT22;4379;59.744;18.206;2023-04-25T07:36:45;4.20;99.90
8684;DHT22;4379;59.744;18.206;2023-04-25T07:39:13;4.20;99.90
8684;DHT22;4379;59.744;18.206;2023-04-25T07:41:40;4.00;99.90
8684;DHT22;4379;59.744;18.206;2023-04-25T07:44:08;4.00;99.90
8684;DHT22;4379;59.744;18.206;2023-04-25T07:46:35;4.20;99.90
8684;DHT22;4379;59.744;18.206;2023-04-25T07:49:02;4.40;99.90
8684;DHT22;4379;59.744;18.206;2023-04-25T07:51:30;4.70;99.90
8684;DHT22;4379;59.744;18.206;2023-04-25T07:53:58;4.80;99.90
8684;DHT22;4379;59.744;18.206;2023-04-25T07:56:26;4.70;99.90
8684;DHT22;4379;59.744;18.206;2023-04-25T07:59:04;4.80;99.90
8684;DHT22;4379;59.744;18.206;2023-04-25T08:01:33;4.40;99.90
8684;DHT22;4379;59.744;18.206;2023-04-25T08:04:00;4.60;99.90
8684;DHT22;4379;59.744;18.206;2023-04-25T08:06:28;4.70;99.90
8684;DHT22;4379;59.744;18.206;2023-04-25T08:08:56;4.80;99.90
8684;DHT22;4379;59.744;18.206;2023-04-25T08:11:23;5.00;99.90
8684;DHT22;4379;59.744;18.206;2023-04-25T08:13:52;5.20;99.90
8684;DHT22;4379;59.744;18.206;2023-04-25T08:16:19;5.40;99.90
8684;DHT22;4379;59.744;18.206;2023-04-25T08:18:47;5.50;99.90
8684;DHT22;4379;59.744;18.206;2023-04-25T08:21:14;5.20;99.90
8684;DHT22;4379;59.744;18.206;2023-04-25T08:23:42;5.30;99.90
8684;DHT22;4379;59.744;18.206;2023-04-25T08:26:12;5.60;99.90
8684;DHT22;4379;59.744;18.206;2023-04-25T08:32:39;5.70;99.90
8684;DHT22;4379;59.744;18.206;2023-04-25T08:35:07;5.60;99.90
8684;DHT22;4379;59.744;18.206;2023-04-25T08:37:35;5.50;99.90
8684;DHT22;4379;59.744;18.206;2023-04-25T08:40:04;5.40;99.90
8684;DHT22;4379;59.744;18.206;2023-04-25T08:42:34;5.50;99.90
8684;DHT22;4379;59.744;18.206;2023-04-25T08:45:03;5.50;99.90
8684;DHT22;4379;59.744;18.206;2023-04-25T08:47:34;5.80;99.90
8684;DHT22;4379;59.744;18.206;2023-04-25T08:50:03;6.00;99.90
8684;DHT22;4379;59.744;18.206;2023-04-25T08:52:41;6.20;99.90
8684;DHT22;4379;59.744;18.206;2023-04-25T08:55:12;6.20;99.90
8684;DHT22;4379;59.744;18.206;2023-04-25T08:57:43;6.40;99.90
8684;DHT22;4379;59.744;18.206;2023-04-25T09:00:12;6.10;99.90
8684;DHT22;4379;59.744;18.206;2023-04-25T09:02:39;6.40;99.90
8684;DHT22;4379;59.744;18.206;2023-04-25T09:05:07;6.60;99.90
8684;DHT22;4379;59.744;18.206;2023-04-25T09:07:38;6.80;99.90
8684;DHT22;4379;59.744;18.206;2023-04-25T09:10:06;6.70;99.90
8684;DHT22;4379;59.744;18.206;2023-04-25T09:12:35;6.90;99.90
8684;DHT22;4379;59.744;18.206;2023-04-25T09:15:12;6.90;99.90
8684;DHT22;4379;59.744;18.206;2023-04-25T09:17:55;7.00;99.90
8684;DHT22;4379;59.744;18.206;2023-04-25T09:20:23;7.40;99.90
8684;DHT22;4379;59.744;18.206;2023-04-25T09:23:02;7.40;99.90
8684;DHT22;4379;59.744;18.206;2023-04-25T09:25:35;7.10;99.90
8684;DHT22;4379;59.744;18.206;2023-04-25T09:28:05;7.00;99.90
8684;DHT22;4379;59.744;18.206;2023-04-25T09:30:34;7.10;99.90
8684;DHT22;4379;59.744;18.206;2023-04-25T09:33:10;7.20;99.90
8684;DHT22;4379;59.744;18.206;2023-04-25T09:35:42;7.10;99.90
8684;DHT22;4379;59.744;18.206;2023-04-25T09:38:14;7.30;99.90
8684;DHT22;4379;59.744;18.206;2023-04-25T09:40:43;7.40;99.90
8684;DHT22;4379;59.744;18.206;2023-04-25T09:43:24;7.50;99.90
8684;DHT22;4379;59.744;18.206;2023-04-25T09:45:54;7.50;99.90
8684;DHT22;4379;59.744;18.206;2023-04-25T09:48:26;8.10;99.90
8684;DHT22;4379;59.744;18.206;2023-04-25T09:51:13;8.30;99.90
8684;DHT22;4379;59.744;18.206;2023-04-25T09:53:45;8.50;99.90
8684;DHT22;4379;59.744;18.206;2023-04-25T09:56:20;8.70;99.90
8684;DHT22;4379;59.744;18.206;2023-04-25T09:58:50;8.50;99.90
8684;DHT22;4379;59.744;18.206;2023-04-25T10:01:21;8.10;99.90
8684;DHT22;4379;59.744;18.206;2023-04-25T10:03:50;8.30;99.90
8684;DHT22;4379;59.744;18.206;2023-04-25T10:06:19;8.20;99.90
8684;DHT22;4379;59.744;18.206;2023-04-25T10:08:51;8.20;99.90
8684;DHT22;4379;59.744;18.206;2023-04-25T10:11:20;8.50;99.90
8684;DHT22;4379;59.744;18.206;2023-04-25T10:13:50;8.30;99.90
8684;DHT22;4379;59.744;18.206;2023-04-25T10:16:18;8.20;99.90
8684;DHT22;4379;59.744;18.206;2023-04-25T10:18:45;8.00;99.90
8684;DHT22;4379;59.744;18.206;2023-04-25T10:21:14;8.10;99.90
8684;DHT22;4379;59.744;18.206;2023-04-25T10:23:43;8.40;99.90
8684;DHT22;4379;59.744;18.206;2023-04-25T10:26:10;8.80;99.90
8684;DHT22;4379;59.744;18.206;2023-04-25T10:28:56;9.10;99.90
8684;DHT22;4379;59.744;18.206;2023-04-25T10:31:26;8.90;99.90
8684;DHT22;4379;59.744;18.206;2023-04-25T10:33:53;8.70;99.90
8684;DHT22;4379;59.744;18.206;2023-04-25T10:36:23;8.70;99.90
8684;DHT22;4379;59.744;18.206;2023-04-25T10:38:51;8.80;99.90
8684;DHT22;4379;59.744;18.206;2023-04-25T10:41:20;9.00;99.90
8684;DHT22;4379;59.744;18.206;2023-04-25T10:43:49;9.30;99.90
8684;DHT22;4379;59.744;18.206;2023-04-25T10:46:28;9.20;99.90
8684;DHT22;4379;59.744;18.206;2023-04-25T10:49:00;9.30;99.90
8684;DHT22;4379;59.744;18.206;2023-04-25T10:51:31;9.60;99.90
8684;DHT22;4379;59.744;18.206;2023-04-25T10:54:18;9.60;99.90
8684;DHT22;4379;59.744;18.206;2023-04-25T10:56:48;9.40;99.90
8684;DHT22;4379;59.744;18.206;2023-04-25T10:59:18;9.00;99.90
8684;DHT22;4379;59.744;18.206;2023-04-25T11:01:47;9.10;99.90
8684;DHT22;4379;59.744;18.206;2023-04-25T11:04:22;9.00;99.90
8684;DHT22;4379;59.744;18.206;2023-04-25T11:07:13;9.30;99.90
8684;DHT22;4379;59.744;18.206;2023-04-25T11:09:40;9.30;99.90
8684;DHT22;4379;59.744;18.206;2023-04-25T11:12:09;9.50;99.90
8684;DHT22;4379;59.744;18.206;2023-04-25T11:14:39;9.50;99.90
8684;DHT22;4379;59.744;18.206;2023-04-25T11:17:11;8.80;99.90
8684;DHT22;4379;59.744;18.206;2023-04-25T11:19:41;8.90;99.90
8684;DHT22;4379;59.744;18.206;2023-04-25T11:22:10;9.10;99.90
8684;DHT22;4379;59.744;18.206;2023-04-25T11:24:37;8.80;99.90
8684;DHT22;4379;59.744;18.206;2023-04-25T11:27:05;8.40;99.90
8684;DHT22;4379;59.744;18.206;2023-04-25T11:29:35;8.70;99.90
8684;DHT22;4379;59.744;18.206;2023-04-25T11:32:02;8.80;99.90
8684;DHT22;4379;59.744;18.206;2023-04-25T11:34:30;8.90;99.90
8684;DHT22;4379;59.744;18.206;2023-04-25T11:36:58;9.10;99.90
8684;DHT22;4379;59.744;18.206;2023-04-25T11:39:29;8.80;99.90
8684;DHT22;4379;59.744;18.206;2023-04-25T11:41:57;9.00;99.90
8684;DHT22;4379;59.744;18.206;2023-04-25T11:44:25;8.90;99.90
8684;DHT22;4379;59.744;18.206;2023-04-25T11:46:53;9.00;99.90
8684;DHT22;4379;59.744;18.206;2023-04-25T11:49:20;9.00;99.90
8684;DHT22;4379;59.744;18.206;2023-04-25T11:51:48;8.80;99.90
8684;DHT22;4379;59.744;18.206;2023-04-25T11:54:16;8.90;99.90
8684;DHT22;4379;59.744;18.206;2023-04-25T11:56:44;8.90;99.90
8684;DHT22;4379;59.744;18.206;2023-04-25T11:59:12;8.90;99.90
8684;DHT22;4379;59.744;18.206;2023-04-25T12:01:48;9.10;99.90
8684;DHT22;4379;59.744;18.206;2023-04-25T12:04:20;9.40;99.90
8684;DHT22;4379;59.744;18.206;2023-04-25T12:06:53;9.40;99.90
8684;DHT22;4379;59.744;18.206;2023-04-25T12:09:29;9.60;99.90
8684;DHT22;4379;59.744;18.206;2023-04-25T12:11:58;9.10;99.90
8684;DHT22;4379;59.744;18.206;2023-04-25T12:14:27;9.20;99.90
8684;DHT22;4379;59.744;18.206;2023-04-25T12:16:59;9.10;99.90
8684;DHT22;4379;59.744;18.206;2023-04-25T12:19:32;8.90;99.90
8684;DHT22;4379;59.744;18.206;2023-04-25T12:22:07;8.80;99.90
8684;DHT22;4379;59.744;18.206;2023-04-25T12:24:45;9.10;99.90
8684;DHT22;4379;59.744;18.206;2023-04-25T12:27:14;9.10;99.90
8684;DHT22;4379;59.744;18.206;2023-04-25T12:29:51;9.20;99.90
8684;DHT22;4379;59.744;18.206;2023-04-25T12:32:19;9.30;99.90
8684;DHT22;4379;59.744;18.206;2023-04-25T12:34:46;9.20;99.90
8684;DHT22;4379;59.744;18.206;2023-04-25T12:37:14;9.20;99.90
8684;DHT22;4379;59.744;18.206;2023-04-25T12:39:41;9.30;99.90
8684;DHT22;4379;59.744;18.206;2023-04-25T12:42:08;9.00;99.90
8684;DHT22;4379;59.744;18.206;2023-04-25T12:44:39;9.10;99.90
8684;DHT22;4379;59.744;18.206;2023-04-25T12:47:07;9.10;99.90
8684;DHT22;4379;59.744;18.206;2023-04-25T12:49:34;9.30;99.90
8684;DHT22;4379;59.744;18.206;2023-04-25T12:52:01;9.40;99.90
8684;DHT22;4379;59.744;18.206;2023-04-25T12:54:29;9.00;99.90
8684;DHT22;4379;59.744;18.206;2023-04-25T12:56:56;9.20;99.90
8684;DHT22;4379;59.744;18.206;2023-04-25T12:59:24;9.20;99.90
8684;DHT22;4379;59.744;18.206;2023-04-25T13:01:51;9.40;99.90
8684;DHT22;4379;59.744;18.206;2023-04-25T13:04:18;9.40;99.90
8684;DHT22;4379;59.744;18.206;2023-04-25T13:06:50;9.30;99.90
8684;DHT22;4379;59.744;18.206;2023-04-25T13:09:18;9.20;99.90
8684;DHT22;4379;59.744;18.206;2023-04-25T13:11:45;9.10;99.90
8684;DHT22;4379;59.744;18.206;2023-04-25T13:14:12;9.10;99.90
8684;DHT22;4379;59.744;18.206;2023-04-25T13:16:42;9.10;99.90
8684;DHT22;4379;59.744;18.206;2023-04-25T13:19:10;9.00;99.90
8684;DHT22;4379;59.744;18.206;2023-04-25T13:21:38;8.80;99.90
8684;DHT22;4379;59.744;18.206;2023-04-25T13:24:05;9.00;99.90
8684;DHT22;4379;59.744;18.206;2023-04-25T13:26:33;9.20;99.90
8684;DHT22;4379;59.744;18.206;2023-04-25T13:29:00;9.50;99.90
8684;DHT22;4379;59.744;18.206;2023-04-25T13:31:32;9.80;99.90
8684;DHT22;4379;59.744;18.206;2023-04-25T13:33:59;10.00;99.90
8684;DHT22;4379;59.744;18.206;2023-04-25T13:36:26;10.00;99.90
8684;DHT22;4379;59.744;18.206;2023-04-25T13:38:54;9.90;99.90
8684;DHT22;4379;59.744;18.206;2023-04-25T13:41:22;10.00;99.90
8684;DHT22;4379;59.744;18.206;2023-04-25T13:43:49;9.80;99.90
8684;DHT22;4379;59.744;18.206;2023-04-25T13:46:17;9.70;99.90
8684;DHT22;4379;59.744;18.206;2023-04-25T13:48:47;9.80;99.90
8684;DHT22;4379;59.744;18.206;2023-04-25T13:51:15;10.00;99.90
8684;DHT22;4379;59.744;18.206;2023-04-25T13:53:44;9.90;99.90
8684;DHT22;4379;59.744;18.206;2023-04-25T13:56:12;10.00;99.90
8684;DHT22;4379;59.744;18.206;2023-04-25T13:58:39;9.90;99.90
8684;DHT22;4379;59.744;18.206;2023-04-25T14:01:07;9.90;99.90
8684;DHT22;4379;59.744;18.206;2023-04-25T14:03:34;9.90;99.90
8684;DHT22;4379;59.744;18.206;2023-04-25T14:06:01;9.90;99.90
8684;DHT22;4379;59.744;18.206;2023-04-25T14:08:28;10.10;99.90
8684;DHT22;4379;59.744;18.206;2023-04-25T14:10:56;10.10;99.90
8684;DHT22;4379;59.744;18.206;2023-04-25T14:13:23;10.10;99.90
8684;DHT22;4379;59.744;18.206;2023-04-25T14:15:50;10.20;99.90
8684;DHT22;4379;59.744;18.206;2023-04-25T14:18:18;10.00;99.90
8684;DHT22;4379;59.744;18.206;2023-04-25T14:20:46;9.90;99.90
8684;DHT22;4379;59.744;18.206;2023-04-25T14:23:13;9.60;99.90
8684;DHT22;4379;59.744;18.206;2023-04-25T14:25:41;9.90;99.90
8684;DHT22;4379;59.744;18.206;2023-04-25T14:28:09;9.70;99.90
8684;DHT22;4379;59.744;18.206;2023-04-25T14:30:37;9.90;99.90
8684;DHT22;4379;59.744;18.206;2023-04-25T14:33:04;10.00;99.90
8684;DHT22;4379;59.744;18.206;2023-04-25T14:35:32;10.30;99.90
8684;DHT22;4379;59.744;18.206;2023-04-25T14:37:59;10.50;99.90
8684;DHT22;4379;59.744;18.206;2023-04-25T14:40:26;10.40;99.90
8684;DHT22;4379;59.744;18.206;2023-04-25T14:42:54;10.40;99.90
8684;DHT22;4379;59.744;18.206;2023-04-25T14:45:21;10.40;99.90
8684;DHT22;4379;59.744;18.206;2023-04-25T14:47:48;10.30;99.90
8684;DHT22;4379;59.744;18.206;2023-04-25T14:50:17;10.20;99.90
8684;DHT22;4379;59.744;18.206;2023-04-25T14:52:44;9.90;99.90
8684;DHT22;4379;59.744;18.206;2023-04-25T14:55:12;9.90;99.90
8684;DHT22;4379;59.744;18.206;2023-04-25T14:57:39;9.90;99.90
8684;DHT22;4379;59.744;18.206;2023-04-25T15:00:07;10.00;99.90
8684;DHT22;4379;59.744;18.206;2023-04-25T15:02:36;9.90;99.90
8684;DHT22;4379;59.744;18.206;2023-04-25T15:05:04;9.70;99.90
8684;DHT22;4379;59.744;18.206;2023-04-25T15:07:31;9.70;99.90
8684;DHT22;4379;59.744;18.206;2023-04-25T15:10:00;9.90;99.90
8684;DHT22;4379;59.744;18.206;2023-04-25T15:12:27;9.30;99.90
8684;DHT22;4379;59.744;18.206;2023-04-25T15:14:55;9.20;99.90
8684;DHT22;4379;59.744;18.206;2023-04-25T15:17:22;9.50;99.90
8684;DHT22;4379;59.744;18.206;2023-04-25T15:19:49;9.60;99.90
8684;DHT22;4379;59.744;18.206;2023-04-25T15:22:16;9.60;99.90
8684;DHT22;4379;59.744;18.206;2023-04-25T15:24:44;9.20;99.90
8684;DHT22;4379;59.744;18.206;2023-04-25T15:27:12;9.50;99.90
8684;DHT22;4379;59.744;18.206;2023-04-25T15:29:39;9.50;99.90
8684;DHT22;4379;59.744;18.206;2023-04-25T15:32:07;9.70;99.90
8684;DHT22;4379;59.744;18.206;2023-04-25T15:34:34;9.80;99.90
8684;DHT22;4379;59.744;18.206;2023-04-25T15:37:02;9.70;99.90
8684;DHT22;4379;59.744;18.206;2023-04-25T15:39:29;9.40;99.90
8684;DHT22;4379;59.744;18.206;2023-04-25T15:41:57;9.40;99.90
8684;DHT22;4379;59.744;18.206;2023-04-25T15:44:25;9.40;99.90
8684;DHT22;4379;59.744;18.206;2023-04-25T15:46:52;9.10;99.90
8684;DHT22;4379;59.744;18.206;2023-04-25T15:49:21;9.00;99.90
8684;DHT22;4379;59.744;18.206;2023-04-25T15:51:50;9.20;99.90
8684;DHT22;4379;59.744;18.206;2023-04-25T15:54:17;9.10;99.90
8684;DHT22;4379;59.744;18.206;2023-04-25T15:56:45;9.10;99.90
8684;DHT22;4379;59.744;18.206;2023-04-25T15:59:13;9.10;99.90
8684;DHT22;4379;59.744;18.206;2023-04-25T16:01:40;9.20;99.90
8684;DHT22;4379;59.744;18.206;2023-04-25T16:04:07;9.20;99.90
8684;DHT22;4379;59.744;18.206;2023-04-25T16:06:35;9.10;99.90
8684;DHT22;4379;59.744;18.206;2023-04-25T16:09:02;9.10;99.90
8684;DHT22;4379;59.744;18.206;2023-04-25T16:11:30;9.00;99.90